sensor_id;sensor_type;location;lat;lon;timestamp;pressure;altitude;pressure_sealevel;temperature;humidity
66681;BME280;53575;51.366;12.350;2022-10-23T00:00:18;100473.22;;;10.51;100.00
66681;BME280;53575;51.366;12.350;2022-10-23T00:02:44;100473.19;;;10.56;100.00
66681;BME280;53575;51.366;12.350;2022-10-23T00:05:09;100469.72;;;10.58;100.00
66681;BME280;53575;51.366;12.350;2022-10-23T00:07:35;100479.25;;;10.64;100.00
66681;BME280;53575;51.366;12.350;2022-10-23T00:10:00;100470.56;;;10.63;100.00
66681;BME280;53575;51.366;12.350;2022-10-23T00:12:26;100467.97;;;10.62;100.00
66681;BME280;53575;51.366;12.350;2022-10-23T00:14:52;100468.81;;;10.64;100.00
66681;BME280;53575;51.366;12.350;2022-10-23T00:17:17;100454.06;;;10.54;100.00
66681;BME280;53575;51.366;12.350;2022-10-23T00:19:43;100468.81;;;10.67;100.00
66681;BME280;53575;51.366;12.350;2022-10-23T00:22:08;100466.19;;;10.64;100.00
66681;BME280;53575;51.366;12.350;2022-10-23T00:24:35;100460.09;;;10.60;100.00
66681;BME280;53575;51.366;12.350;2022-10-23T00:27:00;100468.81;;;10.65;100.00
66681;BME280;53575;51.366;12.350;2022-10-23T00:29:26;100467.06;;;10.63;100.00
66681;BME280;53575;51.366;12.350;2022-10-23T00:31:52;100466.22;;;10.61;100.00
66681;BME280;53575;51.366;12.350;2022-10-23T00:34:18;100466.19;;;10.64;100.00
66681;BME280;53575;51.366;12.350;2022-10-23T00:36:43;100471.44;;;10.65;100.00
66681;BME280;53575;51.366;12.350;2022-10-23T00:39:09;100474.03;;;10.67;100.00
66681;BME280;53575;51.366;12.350;2022-10-23T00:41:34;100468.81;;;10.68;100.00
66681;BME280;53575;51.366;12.350;2022-10-23T00:46:25;100459.19;;;10.73;100.00
66681;BME280;53575;51.366;12.350;2022-10-23T00:48:51;100460.06;;;10.68;100.00
66681;BME280;53575;51.366;12.350;2022-10-23T00:51:16;100461.81;;;10.70;100.00
66681;BME280;53575;51.366;12.350;2022-10-23T00:53:43;100457.47;;;10.72;100.00
66681;BME280;53575;51.366;12.350;2022-10-23T00:56:10;100466.19;;;10.68;100.00
66681;BME280;53575;51.366;12.350;2022-10-23T00:58:35;100461.81;;;10.64;100.00
66681;BME280;53575;51.366;12.350;2022-10-23T01:01:01;100466.22;;;10.62;100.00
66681;BME280;53575;51.366;12.350;2022-10-23T01:03:27;100470.56;;;10.63;100.00
66681;BME280;53575;51.366;12.350;2022-10-23T01:06:02;100475.81;;;10.62;100.00
66681;BME280;53575;51.366;12.350;2022-10-23T01:08:36;100476.59;;;10.78;100.00
66681;BME280;53575;51.366;12.350;2022-10-23T01:11:11;100482.69;;;10.75;100.00
66681;BME280;53575;51.366;12.350;2022-10-23T01:13:49;100474.84;;;10.80;100.00
66681;BME280;53575;51.366;12.350;2022-10-23T01:16:29;100473.09;;;10.88;100.00
66681;BME280;53575;51.366;12.350;2022-10-23T01:19:03;100474.03;;;10.70;100.00
66681;BME280;53575;51.366;12.350;2022-10-23T01:21:51;100472.22;;;10.83;100.00
66681;BME280;53575;51.366;12.350;2022-10-23T01:32:38;100460.09;;;10.60;100.00
66681;BME280;53575;51.366;12.350;2022-10-23T01:35:15;100463.56;;;10.73;100.00
66681;BME280;53575;51.366;12.350;2022-10-23T01:38:17;100452.25;;;10.72;100.00
66681;BME280;53575;51.366;12.350;2022-10-23T01:40:50;100458.31;;;10.78;100.00
66681;BME280;53575;51.366;12.350;2022-10-23T01:43:25;100451.28;;;10.89;100.00
66681;BME280;53575;51.366;12.350;2022-10-23T01:45:59;100446.03;;;10.87;100.00
66681;BME280;53575;51.366;12.350;2022-10-23T01:48:28;100447.78;;;10.91;100.00
66681;BME280;53575;51.366;12.350;2022-10-23T01:51:03;100452.13;;;10.91;100.00
66681;BME280;53575;51.366;12.350;2022-10-23T01:53:33;100453.84;;;10.95;100.00
66681;BME280;53575;51.366;12.350;2022-10-23T01:56:02;100459.13;;;10.86;100.00
66681;BME280;53575;51.366;12.350;2022-10-23T01:58:29;100453.03;;;10.85;100.00
66681;BME280;53575;51.366;12.350;2022-10-23T02:00:57;100453.91;;;10.80;100.00
66681;BME280;53575;51.366;12.350;2022-10-23T02:03:28;100450.44;;;10.84;100.00
66681;BME280;53575;51.366;12.350;2022-10-23T02:05:55;100457.44;;;10.80;100.00
66681;BME280;53575;51.366;12.350;2022-10-23T02:08:20;100442.63;;;10.74;100.00
66681;BME280;53575;51.366;12.350;2022-10-23T02:10:51;100446.09;;;10.75;100.00
66681;BME280;53575;51.366;12.350;2022-10-23T02:16:40;100435.72;;;10.66;100.00
66681;BME280;53575;51.366;12.350;2022-10-23T02:19:23;100443.56;;;10.61;100.00
66681;BME280;53575;51.366;12.350;2022-10-23T02:22:04;100431.38;;;10.60;100.00
66681;BME280;53575;51.366;12.350;2022-10-23T02:24:35;100441.81;;;10.63;100.00
66681;BME280;53575;51.366;12.350;2022-10-23T02:27:10;100433.13;;;10.58;100.00
66681;BME280;53575;51.366;12.350;2022-10-23T02:29:47;100432.25;;;10.62;100.00
66681;BME280;53575;51.366;12.350;2022-10-23T02:32:16;100427.00;;;10.65;100.00
66681;BME280;53575;51.366;12.350;2022-10-23T02:34:44;100418.25;;;10.68;100.00
66681;BME280;53575;51.366;12.350;2022-10-23T02:37:09;100420.00;;;10.73;100.00
66681;BME280;53575;51.366;12.350;2022-10-23T02:39:35;100413.84;;;10.81;100.00
66681;BME280;53575;51.366;12.350;2022-10-23T02:49:56;100415.47;;;11.03;100.00
66681;BME280;53575;51.366;12.350;2022-10-23T02:52:32;100420.66;;;11.11;100.00
66681;BME280;53575;51.366;12.350;2022-10-23T02:55:19;100417.97;;;11.20;100.00
66681;BME280;53575;51.366;12.350;2022-10-23T03:00:16;100417.03;;;11.27;100.00
66681;BME280;53575;51.366;12.350;2022-10-23T03:05:15;100415.19;;;11.40;100.00
66681;BME280;53575;51.366;12.350;2022-10-23T03:07:42;100416.88;;;11.49;100.00
66681;BME280;53575;51.366;12.350;2022-10-23T03:10:09;100411.66;;;11.44;100.00
66681;BME280;53575;51.366;12.350;2022-10-23T03:12:35;100412.53;;;11.46;100.00
66681;BME280;53575;51.366;12.350;2022-10-23T03:15:01;100409.13;;;11.35;100.00
66681;BME280;53575;51.366;12.350;2022-10-23T03:17:26;100417.09;;;11.22;100.00
66681;BME280;53575;51.366;12.350;2022-10-23T03:19:52;100410.03;;;11.31;100.00
66681;BME280;53575;51.366;12.350;2022-10-23T03:22:17;100406.59;;;11.21;100.00
66681;BME280;53575;51.366;12.350;2022-10-23T03:24:42;100403.19;;;11.14;100.00
66681;BME280;53575;51.366;12.350;2022-10-23T03:27:08;100414.53;;;11.10;100.00
66681;BME280;53575;51.366;12.350;2022-10-23T03:29:36;100413.72;;;11.07;100.00
66681;BME280;53575;51.366;12.350;2022-10-23T03:32:01;100418.94;;;11.04;100.00
66681;BME280;53575;51.366;12.350;2022-10-23T03:34:27;100416.34;;;11.04;100.00
66681;BME280;53575;51.366;12.350;2022-10-23T03:36:52;100418.97;;;10.99;100.00
66681;BME280;53575;51.366;12.350;2022-10-23T03:39:17;100419.00;;;10.96;100.00
66681;BME280;53575;51.366;12.350;2022-10-23T03:41:43;100411.16;;;10.96;100.00
66681;BME280;53575;51.366;12.350;2022-10-23T03:44:08;100401.59;;;10.90;100.00
66681;BME280;53575;51.366;12.350;2022-10-23T03:46:33;100411.22;;;10.84;100.00
66681;BME280;53575;51.366;12.350;2022-10-23T03:48:59;100418.22;;;10.80;100.00
66681;BME280;53575;51.366;12.350;2022-10-23T03:51:24;100404.28;;;10.78;100.00
66681;BME280;53575;51.366;12.350;2022-10-23T03:53:50;100396.47;;;10.73;100.00
66681;BME280;53575;51.366;12.350;2022-10-23T03:56:15;100383.47;;;10.61;100.00
66681;BME280;53575;51.366;12.350;2022-10-23T03:58:41;100390.44;;;10.62;100.00
66681;BME280;53575;51.366;12.350;2022-10-23T04:01:07;100392.19;;;10.59;100.00
66681;BME280;53575;51.366;12.350;2022-10-23T04:03:32;100393.09;;;10.53;100.00
66681;BME280;53575;51.366;12.350;2022-10-23T04:05:58;100393.09;;;10.48;100.00
66681;BME280;53575;51.366;12.350;2022-10-23T04:08:23;100403.56;;;10.47;100.00
66681;BME280;53575;51.366;12.350;2022-10-23T04:10:48;100407.91;;;10.45;100.00
66681;BME280;53575;51.366;12.350;2022-10-23T04:13:14;100406.16;;;10.48;100.00
66681;BME280;53575;51.366;12.350;2022-10-23T04:15:39;100405.31;;;10.46;100.00
66681;BME280;53575;51.366;12.350;2022-10-23T04:18:05;100407.03;;;10.47;100.00
66681;BME280;53575;51.366;12.350;2022-10-23T04:20:31;100401.84;;;10.46;100.00
66681;BME280;53575;51.366;12.350;2022-10-23T04:22:56;100405.31;;;10.43;100.00
66681;BME280;53575;51.366;12.350;2022-10-23T04:25:21;100411.44;;;10.42;100.00
66681;BME280;53575;51.366;12.350;2022-10-23T04:27:47;100407.94;;;10.40;100.00
66681;BME280;53575;51.366;12.350;2022-10-23T04:30:12;100405.34;;;10.36;100.00
66681;BME280;53575;51.366;12.350;2022-10-23T04:32:38;100416.66;;;10.39;100.00
66681;BME280;53575;51.366;12.350;2022-10-23T04:35:04;100410.56;;;10.39;100.00
66681;BME280;53575;51.366;12.350;2022-10-23T04:37:29;100409.69;;;10.34;100.00
66681;BME280;53575;51.366;12.350;2022-10-23T04:39:55;100416.69;;;10.35;100.00
66681;BME280;53575;51.366;12.350;2022-10-23T04:42:20;100398.34;;;10.38;100.00
66681;BME280;53575;51.366;12.350;2022-10-23T04:44:45;100410.56;;;10.36;100.00
66681;BME280;53575;51.366;12.350;2022-10-23T04:47:11;100411.47;;;10.32;100.00
66681;BME280;53575;51.366;12.350;2022-10-23T04:49:36;100409.72;;;10.32;100.00
66681;BME280;53575;51.366;12.350;2022-10-23T04:52:02;100394.91;;;10.33;100.00
66681;BME280;53575;51.366;12.350;2022-10-23T04:54:27;100400.16;;;10.31;100.00
66681;BME280;53575;51.366;12.350;2022-10-23T04:56:52;100404.50;;;10.31;100.00
66681;BME280;53575;51.366;12.350;2022-10-23T04:59:18;100403.63;;;10.32;100.00
66681;BME280;53575;51.366;12.350;2022-10-23T05:01:43;100400.13;;;10.30;100.00
66681;BME280;53575;51.366;12.350;2022-10-23T05:04:09;100398.38;;;10.30;100.00
66681;BME280;53575;51.366;12.350;2022-10-23T05:06:34;100398.41;;;10.29;100.00
66681;BME280;53575;51.366;12.350;2022-10-23T05:08:59;100401.00;;;10.29;100.00
66681;BME280;53575;51.366;12.350;2022-10-23T05:11:25;100396.66;;;10.29;100.00
66681;BME280;53575;51.366;12.350;2022-10-23T05:13:50;100401.91;;;10.28;100.00
66681;BME280;53575;51.366;12.350;2022-10-23T05:16:45;100395.81;;;10.25;100.00
66681;BME280;53575;51.366;12.350;2022-10-23T05:19:17;100392.31;;;10.25;100.00
66681;BME280;53575;51.366;12.350;2022-10-23T05:21:46;100389.69;;;10.23;100.00
66681;BME280;53575;51.366;12.350;2022-10-23T05:24:12;100371.44;;;10.14;100.00
66681;BME280;53575;51.366;12.350;2022-10-23T05:26:38;100377.50;;;10.21;100.00
66681;BME280;53575;51.366;12.350;2022-10-23T05:29:03;100383.59;;;10.21;100.00
66681;BME280;53575;51.366;12.350;2022-10-23T05:31:29;100382.72;;;10.22;100.00
66681;BME280;53575;51.366;12.350;2022-10-23T05:33:55;100382.72;;;10.21;100.00
66681;BME280;53575;51.366;12.350;2022-10-23T05:36:21;100387.94;;;10.21;100.00
66681;BME280;53575;51.366;12.350;2022-10-23T05:38:47;100387.13;;;10.16;100.00
66681;BME280;53575;51.366;12.350;2022-10-23T05:41:13;100387.13;;;10.13;100.00
66681;BME280;53575;51.366;12.350;2022-10-23T05:43:38;100382.75;;;10.10;100.00
66681;BME280;53575;51.366;12.350;2022-10-23T05:46:04;100379.31;;;10.11;100.00
66681;BME280;53575;51.366;12.350;2022-10-23T05:48:31;100375.81;;;10.06;100.00
66681;BME280;53575;51.366;12.350;2022-10-23T05:51:04;100382.75;;;10.07;100.00
66681;BME280;53575;51.366;12.350;2022-10-23T05:53:30;100380.16;;;10.10;100.00
66681;BME280;53575;51.366;12.350;2022-10-23T05:55:56;100369.69;;;10.13;100.00
66681;BME280;53575;51.366;12.350;2022-10-23T05:58:21;100363.59;;;10.17;100.00
66681;BME280;53575;51.366;12.350;2022-10-23T06:00:47;100364.47;;;10.25;100.00
66681;BME280;53575;51.366;12.350;2022-10-23T06:03:13;100364.44;;;10.22;100.00
66681;BME280;53575;51.366;12.350;2022-10-23T06:05:38;100367.03;;;10.22;100.00
66681;BME280;53575;51.366;12.350;2022-10-23T06:08:04;100365.31;;;10.26;100.00
66681;BME280;53575;51.366;12.350;2022-10-23T06:10:29;100364.44;;;10.29;100.00
66681;BME280;53575;51.366;12.350;2022-10-23T06:12:55;100371.41;;;10.33;100.00
66681;BME280;53575;51.366;12.350;2022-10-23T06:15:21;100374.88;;;10.36;100.00
66681;BME280;53575;51.366;12.350;2022-10-23T06:17:46;100367.00;;;10.45;100.00
66681;BME280;53575;51.366;12.350;2022-10-23T06:20:12;100377.47;;;10.45;100.00
66681;BME280;53575;51.366;12.350;2022-10-23T06:22:37;100372.19;;;10.50;100.00
66681;BME280;53575;51.366;12.350;2022-10-23T06:25:02;100377.44;;;10.47;100.00
66681;BME280;53575;51.366;12.350;2022-10-23T06:27:28;100386.09;;;10.57;100.00
66681;BME280;53575;51.366;12.350;2022-10-23T06:29:53;100367.78;;;10.57;100.00
66681;BME280;53575;51.366;12.350;2022-10-23T06:32:19;100370.38;;;10.66;100.00
66681;BME280;53575;51.366;12.350;2022-10-23T06:34:44;100376.44;;;10.72;100.00
66681;BME280;53575;51.366;12.350;2022-10-23T06:37:09;100383.38;;;10.78;100.00
66681;BME280;53575;51.366;12.350;2022-10-23T06:39:35;100384.22;;;10.82;100.00
66681;BME280;53575;51.366;12.350;2022-10-23T06:42:01;100385.09;;;10.84;100.00
66681;BME280;53575;51.366;12.350;2022-10-23T06:44:26;100382.41;;;10.90;100.00
66681;BME280;53575;51.366;12.350;2022-10-23T06:46:52;100384.09;;;11.02;100.00
66681;BME280;53575;51.366;12.350;2022-10-23T06:49:17;100384.97;;;11.04;100.00
66681;BME280;53575;51.366;12.350;2022-10-23T06:51:42;100395.34;;;11.10;100.00
66681;BME280;53575;51.366;12.350;2022-10-23T06:54:09;100401.38;;;11.18;100.00
66681;BME280;53575;51.366;12.350;2022-10-23T06:56:35;100403.03;;;11.33;100.00
66681;BME280;53575;51.366;12.350;2022-10-23T06:59:01;100395.25;;;11.25;100.00
66681;BME280;53575;51.366;12.350;2022-10-23T07:01:26;100404.72;;;11.40;100.00
66681;BME280;53575;51.366;12.350;2022-10-23T07:03:52;100402.09;;;11.43;100.00
66681;BME280;53575;51.366;12.350;2022-10-23T07:06:17;100402.03;;;11.47;100.00
66681;BME280;53575;51.366;12.350;2022-10-23T07:08:42;100397.66;;;11.51;100.00
66681;BME280;53575;51.366;12.350;2022-10-23T07:11:10;100392.41;;;11.54;100.00
66681;BME280;53575;51.366;12.350;2022-10-23T07:13:36;100397.59;;;11.60;100.00
66681;BME280;53575;51.366;12.350;2022-10-23T07:16:20;100394.91;;;11.68;100.00
66681;BME280;53575;51.366;12.350;2022-10-23T07:18:46;100390.44;;;11.79;100.00
66681;BME280;53575;51.366;12.350;2022-10-23T07:21:12;100382.59;;;11.76;100.00
66681;BME280;53575;51.366;12.350;2022-10-23T07:23:38;100384.94;;;12.05;100.00
66681;BME280;53575;51.366;12.350;2022-10-23T07:26:05;100390.06;;;12.17;100.00
66681;BME280;53575;51.366;12.350;2022-10-23T07:28:31;100384.66;;;12.30;100.00
66681;BME280;53575;51.366;12.350;2022-10-23T07:30:57;100386.16;;;12.49;100.00
66681;BME280;53575;51.366;12.350;2022-10-23T07:33:23;100386.06;;;12.55;100.00
66681;BME280;53575;51.366;12.350;2022-10-23T07:35:48;100378.13;;;12.61;100.00
66681;BME280;53575;51.366;12.350;2022-10-23T07:38:14;100378.22;;;12.55;100.00
66681;BME280;53575;51.366;12.350;2022-10-23T07:40:39;100387.69;;;12.65;100.00
66681;BME280;53575;51.366;12.350;2022-10-23T07:43:05;100392.75;;;12.78;100.00
66681;BME280;53575;51.366;12.350;2022-10-23T07:45:30;100396.38;;;12.69;100.00
66681;BME280;53575;51.366;12.350;2022-10-23T07:47:55;100393.72;;;12.72;100.00
66681;BME280;53575;51.366;12.350;2022-10-23T07:50:21;100403.34;;;12.70;100.00
66681;BME280;53575;51.366;12.350;2022-10-23T07:52:46;100398.22;;;12.64;100.00
66681;BME280;53575;51.366;12.350;2022-10-23T07:55:12;100387.66;;;12.68;100.00
66681;BME280;53575;51.366;12.350;2022-10-23T07:57:38;100396.09;;;12.90;100.00
66681;BME280;53575;51.366;12.350;2022-10-23T08:00:04;100389.09;;;12.91;100.00
66681;BME280;53575;51.366;12.350;2022-10-23T08:02:30;100389.84;;;12.99;100.00
66681;BME280;53575;51.366;12.350;2022-10-23T08:04:55;100391.41;;;13.11;100.00
66681;BME280;53575;51.366;12.350;2022-10-23T08:07:21;100385.19;;;13.18;100.00
66681;BME280;53575;51.366;12.350;2022-10-23T08:09:46;100371.03;;;13.30;100.00
66681;BME280;53575;51.366;12.350;2022-10-23T08:12:11;100370.66;;;13.53;100.00
66681;BME280;53575;51.366;12.350;2022-10-23T08:14:37;100361.72;;;13.61;100.00
66681;BME280;53575;51.366;12.350;2022-10-23T08:17:02;100366.06;;;13.64;100.00
66681;BME280;53575;51.366;12.350;2022-10-23T08:19:29;100355.38;;;13.75;100.00
66681;BME280;53575;51.366;12.350;2022-10-23T08:21:54;100359.69;;;13.79;100.00
66681;BME280;53575;51.366;12.350;2022-10-23T08:24:21;100343.78;;;13.85;100.00
66681;BME280;53575;51.366;12.350;2022-10-23T08:26:48;100348.06;;;13.90;100.00
66681;BME280;53575;51.366;12.350;2022-10-23T08:29:14;100344.59;;;13.88;100.00
66681;BME280;53575;51.366;12.350;2022-10-23T08:31:39;100342.88;;;13.89;100.00
66681;BME280;53575;51.366;12.350;2022-10-23T08:34:05;100344.44;;;13.96;100.00
66681;BME280;53575;51.366;12.350;2022-10-23T08:36:31;100338.88;;;14.11;99.92
66681;BME280;53575;51.366;12.350;2022-10-23T08:38:58;100337.78;;;14.23;99.81
66681;BME280;53575;51.366;12.350;2022-10-23T08:46:33;100352.19;;;14.47;97.90
66681;BME280;53575;51.366;12.350;2022-10-23T08:49:13;100343.59;;;14.39;98.29
66681;BME280;53575;51.366;12.350;2022-10-23T08:51:45;100351.72;;;14.69;97.15
66681;BME280;53575;51.366;12.350;2022-10-23T08:54:38;100352.56;;;14.71;97.57
66681;BME280;53575;51.366;12.350;2022-10-23T08:57:03;100349.41;;;14.94;95.83
66681;BME280;53575;51.366;12.350;2022-10-23T08:59:41;100345.47;;;15.11;95.40
66681;BME280;53575;51.366;12.350;2022-10-23T09:02:24;100346.97;;;15.22;94.90
66681;BME280;53575;51.366;12.350;2022-10-23T09:04:53;100356.19;;;15.40;93.79
66681;BME280;53575;51.366;12.350;2022-10-23T09:15:52;100349.16;;;15.76;90.09
66681;BME280;53575;51.366;12.350;2022-10-23T09:18:19;100352.63;;;15.76;90.21
66681;BME280;53575;51.366;12.350;2022-10-23T09:20:45;100348.94;;;15.83;89.90
66681;BME280;53575;51.366;12.350;2022-10-23T09:23:21;100344.59;;;15.81;87.95
66681;BME280;53575;51.366;12.350;2022-10-23T09:25:49;100348.16;;;15.80;88.36
66681;BME280;53575;51.366;12.350;2022-10-23T09:28:24;100342.66;;;15.88;87.89
66681;BME280;53575;51.366;12.350;2022-10-23T09:30:51;100339.56;;;16.04;86.34
66681;BME280;53575;51.366;12.350;2022-10-23T09:33:26;100346.75;;;15.99;85.96
66681;BME280;53575;51.366;12.350;2022-10-23T09:35:56;100353.72;;;16.00;86.45
66681;BME280;53575;51.366;12.350;2022-10-23T09:40:53;100341.28;;;16.05;87.46
66681;BME280;53575;51.366;12.350;2022-10-23T09:43:19;100350.44;;;16.23;86.46
66681;BME280;53575;51.366;12.350;2022-10-23T09:46:03;100350.72;;;16.44;85.20
66681;BME280;53575;51.366;12.350;2022-10-23T09:48:31;100344.41;;;16.49;84.72
66681;BME280;53575;51.366;12.350;2022-10-23T09:50:59;100348.53;;;16.58;84.52
66681;BME280;53575;51.366;12.350;2022-10-23T09:53:36;100354.66;;;16.60;84.62
66681;BME280;53575;51.366;12.350;2022-10-23T09:56:23;100345.75;;;16.63;84.11
66681;BME280;53575;51.366;12.350;2022-10-23T09:58:57;100347.19;;;16.73;82.12
66681;BME280;53575;51.366;12.350;2022-10-23T10:01:34;100345.16;;;16.83;78.91
66681;BME280;53575;51.366;12.350;2022-10-23T10:04:00;100347.94;;;16.78;79.84
66681;BME280;53575;51.366;12.350;2022-10-23T10:06:31;100336.75;;;16.70;80.23
66681;BME280;53575;51.366;12.350;2022-10-23T10:09:17;100339.63;;;16.62;81.75
66681;BME280;53575;51.366;12.350;2022-10-23T10:11:54;100337.97;;;16.58;81.89
66681;BME280;53575;51.366;12.350;2022-10-23T10:14:38;100326.25;;;16.68;81.59
66681;BME280;53575;51.366;12.350;2022-10-23T10:17:19;100324.63;;;16.64;81.68
66681;BME280;53575;51.366;12.350;2022-10-23T10:22:48;100306.41;;;16.55;81.29
66681;BME280;53575;51.366;12.350;2022-10-23T10:30:57;100298.56;;;16.53;82.33
66681;BME280;53575;51.366;12.350;2022-10-23T10:33:28;100293.47;;;16.47;82.83
66681;BME280;53575;51.366;12.350;2022-10-23T10:36:46;100285.41;;;16.52;82.43
66681;BME280;53575;51.366;12.350;2022-10-23T10:39:01;100293.81;;;16.65;81.65
66681;BME280;53575;51.366;12.350;2022-10-23T10:44:03;100281.81;;;16.83;81.18
66681;BME280;53575;51.366;12.350;2022-10-23T10:46:43;100281.06;;;17.05;79.98
66681;BME280;53575;51.366;12.350;2022-10-23T10:49:28;100277.50;;;17.33;79.43
66681;BME280;53575;51.366;12.350;2022-10-23T11:00:00;100264.28;;;17.58;77.64
66681;BME280;53575;51.366;12.350;2022-10-23T11:02:32;100270.22;;;17.65;78.19
66681;BME280;53575;51.366;12.350;2022-10-23T11:08:09;100263.44;;;17.58;79.30
66681;BME280;53575;51.366;12.350;2022-10-23T11:10:46;100254.91;;;17.74;78.55
66681;BME280;53575;51.366;12.350;2022-10-23T11:13:25;100255.97;;;17.94;77.83
66681;BME280;53575;51.366;12.350;2022-10-23T11:15:55;100242.41;;;18.03;76.22
66681;BME280;53575;51.366;12.350;2022-10-23T11:18:27;100248.78;;;18.21;76.01
66681;BME280;53575;51.366;12.350;2022-10-23T11:34:35;100226.94;;;19.24;68.61
66681;BME280;53575;51.366;12.350;2022-10-23T11:37:04;100214.34;;;19.29;67.60
66681;BME280;53575;51.366;12.350;2022-10-23T11:39:31;100208.91;;;19.32;67.37
66681;BME280;53575;51.366;12.350;2022-10-23T11:44:46;100203.66;;;19.51;66.60
66681;BME280;53575;51.366;12.350;2022-10-23T11:52:51;100187.25;;;20.01;65.29
66681;BME280;53575;51.366;12.350;2022-10-23T11:55:21;100177.34;;;20.05;65.26
66681;BME280;53575;51.366;12.350;2022-10-23T11:58:19;100173.28;;;19.98;65.21
66681;BME280;53575;51.366;12.350;2022-10-23T12:00:59;100164.19;;;19.65;67.40
66681;BME280;53575;51.366;12.350;2022-10-23T12:03:29;100155.50;;;19.62;66.61
66681;BME280;53575;51.366;12.350;2022-10-23T12:06:00;100159.00;;;19.62;67.57
66681;BME280;53575;51.366;12.350;2022-10-23T12:08:30;100150.47;;;19.93;67.21
66681;BME280;53575;51.366;12.350;2022-10-23T12:10:56;100152.47;;;20.26;65.86
66681;BME280;53575;51.366;12.350;2022-10-23T12:16:05;100141.66;;;20.83;62.95
66681;BME280;53575;51.366;12.350;2022-10-23T12:18:47;100136.66;;;21.11;60.20
66681;BME280;53575;51.366;12.350;2022-10-23T12:21:19;100137.50;;;21.29;60.07
66681;BME280;53575;51.366;12.350;2022-10-23T12:27:03;100139.97;;;21.50;60.38
66681;BME280;53575;51.366;12.350;2022-10-23T12:35:49;100126.22;;;21.24;60.69
66681;BME280;53575;51.366;12.350;2022-10-23T12:38:23;100124.84;;;21.34;61.69
66681;BME280;53575;51.366;12.350;2022-10-23T12:41:08;100121.75;;;21.42;60.42
66681;BME280;53575;51.366;12.350;2022-10-23T12:43:36;100114.66;;;21.25;60.77
66681;BME280;53575;51.366;12.350;2022-10-23T12:48:52;100105.41;;;21.50;61.58
66681;BME280;53575;51.366;12.350;2022-10-23T12:51:22;100105.47;;;21.48;61.86
66681;BME280;53575;51.366;12.350;2022-10-23T12:53:48;100102.66;;;21.18;63.13
66681;BME280;53575;51.366;12.350;2022-10-23T12:56:14;100094.69;;;21.18;63.44
66681;BME280;53575;51.366;12.350;2022-10-23T12:59:09;100097.50;;;21.15;61.95
66681;BME280;53575;51.366;12.350;2022-10-23T13:01:33;100088.16;;;20.90;63.22
66681;BME280;53575;51.366;12.350;2022-10-23T13:04:07;100092.53;;;20.91;63.86
66681;BME280;53575;51.366;12.350;2022-10-23T13:06:38;100087.69;;;21.00;63.99
66681;BME280;53575;51.366;12.350;2022-10-23T13:09:05;100098.63;;;20.93;64.16
66681;BME280;53575;51.366;12.350;2022-10-23T13:11:32;100090.09;;;20.87;64.27
66681;BME280;53575;51.366;12.350;2022-10-23T13:13:57;100085.03;;;20.82;64.01
66681;BME280;53575;51.366;12.350;2022-10-23T13:16:24;100093.94;;;20.81;64.12
66681;BME280;53575;51.366;12.350;2022-10-23T13:18:50;100084.28;;;20.63;66.10
66681;BME280;53575;51.366;12.350;2022-10-23T13:21:21;100087.16;;;20.58;65.97
66681;BME280;53575;51.366;12.350;2022-10-23T13:23:47;100085.63;;;20.54;65.47
66681;BME280;53575;51.366;12.350;2022-10-23T13:28:59;100083.47;;;20.43;64.23
66681;BME280;53575;51.366;12.350;2022-10-23T13:31:29;100077.06;;;20.48;64.79
66681;BME280;53575;51.366;12.350;2022-10-23T13:36:25;100082.75;;;20.23;64.78
66681;BME280;53575;51.366;12.350;2022-10-23T13:41:23;100067.44;;;20.10;64.82
66681;BME280;53575;51.366;12.350;2022-10-23T13:43:48;100058.75;;;20.07;65.18
66681;BME280;53575;51.366;12.350;2022-10-23T13:46:19;100056.44;;;20.01;67.40
66681;BME280;53575;51.366;12.350;2022-10-23T13:48:45;100054.06;;;19.94;66.82
66681;BME280;53575;51.366;12.350;2022-10-23T13:53:37;100048.59;;;19.61;67.71
66681;BME280;53575;51.366;12.350;2022-10-23T13:56:03;100044.78;;;19.48;68.81
66681;BME280;53575;51.366;12.350;2022-10-23T13:58:28;100044.50;;;19.35;69.59
66681;BME280;53575;51.366;12.350;2022-10-23T14:00:54;100054.25;;;19.35;69.87
66681;BME280;53575;51.366;12.350;2022-10-23T14:03:19;100054.31;;;19.33;70.16
66681;BME280;53575;51.366;12.350;2022-10-23T14:05:49;100041.63;;;19.21;70.61
66681;BME280;53575;51.366;12.350;2022-10-23T14:08:14;100045.56;;;19.12;71.56
66681;BME280;53575;51.366;12.350;2022-10-23T14:10:39;100041.41;;;19.07;72.04
66681;BME280;53575;51.366;12.350;2022-10-23T14:13:05;100039.31;;;18.94;72.77
66681;BME280;53575;51.366;12.350;2022-10-23T14:15:30;100042.28;;;18.87;73.00
66681;BME280;53575;51.366;12.350;2022-10-23T14:17:55;100039.06;;;18.80;73.17
66681;BME280;53575;51.366;12.350;2022-10-23T14:20:21;100035.88;;;18.72;73.72
66681;BME280;53575;51.366;12.350;2022-10-23T14:22:46;100031.88;;;18.62;74.20
66681;BME280;53575;51.366;12.350;2022-10-23T14:25:11;100019.16;;;18.51;74.64
66681;BME280;53575;51.366;12.350;2022-10-23T14:27:37;100017.81;;;18.41;75.13
66681;BME280;53575;51.366;12.350;2022-10-23T14:30:03;100010.13;;;18.35;74.84
66681;BME280;53575;51.366;12.350;2022-10-23T14:32:29;100013.84;;;18.31;74.88